Time;durP1;ratioP1;P1;durP2;ratioP2;P2;SDS_P1;SDS_P2;PMS_P1;PMS_P2;Temp;Humidity;BMP_temperature;BMP_pressure;BME280_temperature;BME280_humidity;BME280_pressure;Samples;Min_cycle;Max_cycle;Signal;HPM_P1;HPM_P2
2022/06/07 00:01:44;;;;;;;5.10;1.90;;;;;;;13.50;79.04;95648.74;1795367;80;21023;-69
2022/06/07 00:04:10;;;;;;;2.33;1.82;;;;;;;13.48;78.89;95648.80;1795388;80;21010;-69
2022/06/07 00:06:37;;;;;;;5.67;1.95;;;;;;;13.39;79.20;95645.95;1795400;80;20983;-69
2022/06/07 00:09:04;;;;;;;2.22;1.90;;;;;;;13.34;79.28;95647.86;1795542;80;21026;-70
2022/06/07 00:11:30;;;;;;;2.58;1.90;;;;;;;13.36;79.87;95650.02;1795482;80;20995;-70
2022/06/07 00:13:57;;;;;;;2.22;1.90;;;;;;;13.34;79.66;95653.16;1795172;80;21106;-70
2022/06/07 00:16:24;;;;;;;2.05;1.85;;;;;;;13.30;79.72;95654.61;1795332;80;21011;-69
2022/06/07 00:18:51;;;;;;;2.12;1.92;;;;;;;13.36;79.58;95645.18;1795555;80;20983;-69
2022/06/07 00:21:18;;;;;;;3.12;1.70;;;;;;;13.41;79.23;95647.24;1795479;80;21455;-69
2022/06/07 00:23:45;;;;;;;3.55;1.87;;;;;;;13.38;78.57;95648.63;1795605;80;21511;-69
2022/06/07 00:26:12;;;;;;;3.08;1.87;;;;;;;13.37;79.18;95645.12;1795044;80;21094;-68
2022/06/07 00:28:39;;;;;;;1.65;1.55;;;;;;;13.43;79.15;95644.09;1795146;80;21007;-69
2022/06/07 00:31:05;;;;;;;1.82;1.60;;;;;;;13.35;79.08;95644.28;1795756;80;20986;-69
2022/06/07 00:33:32;;;;;;;2.67;1.70;;;;;;;13.33;78.75;95645.24;1795391;80;21006;-69
2022/06/07 00:35:59;;;;;;;2.75;1.60;;;;;;;13.37;79.02;95645.12;1795375;80;21007;-69
2022/06/07 00:38:26;;;;;;;1.80;1.70;;;;;;;13.32;78.01;95645.70;1795635;80;21010;-69
2022/06/07 00:40:53;;;;;;;3.00;1.70;;;;;;;13.21;78.55;95650.42;1795510;80;21041;-69
2022/06/07 00:43:25;;;;;;;1.67;1.57;;;;;;;13.19;78.68;95646.94;1795488;80;21480;-70
2022/06/07 00:45:52;;;;;;;2.00;1.80;;;;;;;13.24;78.64;95646.35;1795577;80;20994;-70
2022/06/07 00:48:20;;;;;;;2.92;2.27;;;;;;;13.24;78.69;95642.84;1795552;80;20983;-69
2022/06/07 00:51:03;;;;;;;2.45;1.80;;;;;;;13.28;78.92;95639.20;1795466;80;21539;-70
2022/06/07 00:53:33;;;;;;;2.35;1.95;;;;;;;13.19;78.59;95637.67;1795508;80;21508;-69
2022/06/07 00:56:08;;;;;;;3.62;1.87;;;;;;;13.13;78.94;95629.91;1791927;80;21125;-69
2022/06/07 00:58:36;;;;;;;2.70;1.92;;;;;;;13.07;78.71;95644.62;1795549;80;21006;-69
2022/06/07 01:01:04;;;;;;;2.62;1.92;;;;;;;13.07;78.45;95637.55;1795500;80;21455;-69
2022/06/07 01:03:32;;;;;;;2.20;1.80;;;;;;;12.99;78.83;95636.43;1795474;80;20974;-69
2022/06/07 01:10:43;;;;;;;2.80;1.92;;;;;;;12.89;78.95;95639.38;1795718;80;20959;-69
2022/06/07 01:11:13;;;;;;;2.60;1.85;;;;;;;12.71;78.80;95640.27;1795335;80;21034;-68
2022/06/07 01:13:40;;;;;;;2.17;2.00;;;;;;;12.70;79.13;95637.66;1793333;80;21067;-69
2022/06/07 01:16:09;;;;;;;2.17;1.98;;;;;;;12.70;79.38;95635.91;1786320;80;21031;-69
2022/06/07 01:18:38;;;;;;;2.87;2.30;;;;;;;12.66;79.02;95632.91;1785802;80;21011;-70
2022/06/07 01:21:23;;;;;;;2.30;2.00;;;;;;;12.61;79.41;95633.95;1787101;80;21058;-69
2022/06/07 01:23:52;;;;;;;1.98;1.77;;;;;;;12.55;79.74;95629.23;1736690;80;21026;-70
2022/06/07 01:26:21;;;;;;;2.30;2.10;;;;;;;12.48;80.73;95637.36;1786837;80;21015;-70
2022/06/07 01:28:49;;;;;;;3.42;2.20;;;;;;;12.53;80.25;95632.82;1787049;80;21022;-69
2022/06/07 01:31:16;;;;;;;3.25;2.25;;;;;;;12.52;81.48;95630.64;1787057;80;21008;-70
2022/06/07 01:33:42;;;;;;;3.58;2.30;;;;;;;12.50;81.84;95631.58;1787131;80;21508;-70
2022/06/07 01:36:14;;;;;;;3.08;2.00;;;;;;;12.53;80.86;95631.03;1786985;80;20990;-69
2022/06/07 01:38:43;;;;;;;2.37;2.17;;;;;;;12.54;80.63;95628.80;1787074;80;21007;-69
2022/06/07 01:41:54;;;;;;;2.30;1.87;;;;;;;12.60;80.65;95626.89;1786886;80;21003;-69
2022/06/07 01:43:43;;;;;;;;;;;;;;;12.55;80.40;95634.98;1763883;80;21110;-69
2022/06/07 01:46:10;;;;;;;3.52;2.15;;;;;;;12.57;80.51;95627.84;1756253;81;20106;-69
2022/06/07 01:48:38;;;;;;;2.40;2.17;;;;;;;12.54;80.80;95633.22;1787066;80;21473;-69
2022/06/07 01:51:07;;;;;;;2.10;1.80;;;;;;;12.58;80.17;95632.25;1787234;80;21040;-69
2022/06/07 01:53:36;;;;;;;4.05;2.35;;;;;;;12.55;79.96;95633.66;1787119;80;21070;-69
2022/06/07 01:56:07;;;;;;;1.95;1.80;;;;;;;12.59;80.51;95628.68;1787110;80;21040;-69
2022/06/07 01:58:35;;;;;;;2.10;1.95;;;;;;;12.64;80.33;95630.75;1754200;80;21471;-70
2022/06/07 02:01:02;;;;;;;2.20;2.00;;;;;;;12.71;80.10;95636.30;1787122;80;20962;-70
2022/06/07 02:03:30;;;;;;;3.10;2.08;;;;;;;12.70;79.54;95632.36;1787223;80;21048;-70
2022/06/07 02:06:02;;;;;;;5.00;2.20;;;;;;;12.59;79.18;95630.00;1786858;80;21117;-70
2022/06/07 02:08:30;;;;;;;4.22;3.50;;;;;;;12.53;79.59;95625.75;1786297;80;20994;-69
2022/06/07 02:11:05;;;;;;;4.33;2.27;;;;;;;12.52;80.41;95631.06;1787340;80;21009;-69
2022/06/07 02:13:33;;;;;;;2.67;1.80;;;;;;;12.50;80.64;95626.29;1787048;80;21056;-69
2022/06/07 02:16:00;;;;;;;4.92;2.25;;;;;;;12.43;79.90;95628.67;1800829;80;21079;-69
2022/06/07 02:18:27;;;;;;;10.05;2.17;;;;;;;12.42;80.20;95630.88;1800982;80;21005;-69
2022/06/07 02:20:57;;;;;;;2.33;2.12;;;;;;;12.41;80.17;95631.80;1800199;80;21016;-69
2022/06/07 02:23:24;;;;;;;2.37;2.17;;;;;;;12.47;80.22;95625.91;1800989;80;21483;-69
2022/06/07 02:25:56;;;;;;;3.40;2.08;;;;;;;12.50;80.05;95627.16;1801072;80;21068;-69
2022/06/07 02:28:27;;;;;;;2.20;2.00;;;;;;;12.43;79.70;95632.18;1800823;80;20977;-69
2022/06/07 02:30:55;;;;;;;3.05;2.20;;;;;;;12.33;79.89;95628.89;1772335;80;21039;-69
2022/06/07 02:33:23;;;;;;;2.17;2.05;;;;;;;12.24;80.36;95636.18;1800928;80;21506;-69
2022/06/07 02:35:50;;;;;;;3.02;2.70;;;;;;;12.11;80.79;95636.94;1800918;80;21503;-69
2022/06/07 02:38:18;;;;;;;2.47;2.27;;;;;;;12.14;80.45;95640.82;1801016;80;20977;-70
2022/06/07 02:40:47;;;;;;;4.15;2.00;;;;;;;12.15;80.28;95635.97;1801167;80;21004;-70
2022/06/07 02:43:14;;;;;;;2.55;2.35;;;;;;;12.10;80.60;95641.36;1800824;80;21518;-70
2022/06/07 02:45:42;;;;;;;2.60;2.40;;;;;;;12.03;80.24;95642.86;1801649;80;21013;-70
2022/06/07 02:48:09;;;;;;;2.25;2.05;;;;;;;12.03;80.23;95641.54;1801076;80;20969;-69
2022/06/07 02:50:37;;;;;;;2.70;2.50;;;;;;;11.98;81.18;95645.61;1800962;80;21534;-69
2022/06/07 02:53:05;;;;;;;3.05;2.58;;;;;;;11.98;81.45;95647.39;1800683;80;21005;-69
2022/06/07 02:55:34;;;;;;;2.55;2.35;;;;;;;11.98;81.68;95648.25;1800899;80;21490;-68
2022/06/07 02:58:02;;;;;;;3.47;2.50;;;;;;;11.95;81.91;95647.02;1800103;80;21020;-69
2022/06/07 03:00:29;;;;;;;5.62;2.72;;;;;;;11.92;81.43;95644.45;1801292;80;20985;-69
2022/06/07 03:02:57;;;;;;;2.65;2.45;;;;;;;11.97;81.36;95650.92;1800949;80;21020;-69
2022/06/07 03:05:25;;;;;;;2.47;2.27;;;;;;;12.06;81.29;95651.58;1800986;80;21495;-69
2022/06/07 03:07:53;;;;;;;2.87;2.35;;;;;;;12.09;81.06;95647.53;1800566;80;21009;-69
2022/06/07 03:10:21;;;;;;;2.40;2.20;;;;;;;12.09;81.34;95650.64;1801177;80;21027;-69
2022/06/07 03:12:49;;;;;;;2.70;2.35;;;;;;;12.10;81.35;95650.62;1800823;80;21005;-70
2022/06/07 03:15:18;;;;;;;4.10;2.50;;;;;;;12.10;81.21;95657.23;1792023;80;21523;-70
2022/06/07 03:17:45;;;;;;;3.22;2.40;;;;;;;12.12;81.04;95647.48;1787113;80;21472;-70
2022/06/07 03:20:13;;;;;;;2.55;2.35;;;;;;;12.23;81.26;95656.48;1787047;80;20993;-70
2022/06/07 03:22:40;;;;;;;2.95;2.35;;;;;;;12.30;81.24;95651.92;1787085;80;20982;-70
2022/06/07 03:25:08;;;;;;;2.47;2.27;;;;;;;12.38;81.31;95647.30;1787037;80;21017;-70
2022/06/07 03:27:37;;;;;;;3.33;2.20;;;;;;;12.45;81.85;95656.83;1786884;80;21018;-69
2022/06/07 03:30:08;;;;;;;2.00;1.90;;;;;;;12.58;81.63;95646.80;1787180;80;20993;-69
2022/06/07 03:32:38;;;;;;;2.60;2.30;;;;;;;12.65;81.47;95644.84;1787127;80;21032;-69
2022/06/07 03:35:06;;;;;;;2.37;2.17;;;;;;;12.66;81.96;95650.12;1787147;80;21062;-70
2022/06/07 03:37:36;;;;;;;3.45;2.40;;;;;;;12.77;81.69;95650.73;1787076;80;21506;-69
2022/06/07 03:40:08;;;;;;;2.22;2.02;;;;;;;12.85;81.61;95646.98;1787248;80;21002;-69
2022/06/07 03:42:36;;;;;;;5.05;2.85;;;;;;;12.97;81.68;95652.81;1787069;80;21092;-69
2022/06/07 03:45:05;;;;;;;3.87;2.80;;;;;;;13.07;81.56;95648.14;1787116;80;21472;-69
2022/06/07 03:47:34;;;;;;;3.42;2.83;;;;;;;13.18;81.39;95646.08;1787165;80;21048;-70
2022/06/07 03:50:01;;;;;;;3.65;3.00;;;;;;;13.38;81.36;95643.33;1787200;80;21030;-70
2022/06/07 03:52:29;;;;;;;6.22;3.33;;;;;;;13.51;80.48;95642.55;1786596;80;21035;-70
2022/06/07 03:54:56;;;;;;;2.37;2.17;;;;;;;13.55;79.91;95646.83;1787146;80;21056;-69
2022/06/07 03:57:25;;;;;;;3.05;2.62;;;;;;;13.60;80.00;95646.23;1786872;80;21013;-70
2022/06/07 03:59:53;;;;;;;2.55;2.35;;;;;;;13.62;79.65;95636.45;1786802;80;20990;-70
2022/06/07 04:02:20;;;;;;;2.83;2.40;;;;;;;13.78;80.16;95635.09;1787293;80;21024;-70
2022/06/07 04:04:47;;;;;;;6.28;2.80;;;;;;;13.98;80.11;95637.56;1787332;80;21017;-70
2022/06/07 04:10:01;;;;;;;2.70;2.50;;;;;;;14.24;78.60;95632.78;1787195;80;21037;-69
2022/06/07 04:12:30;;;;;;;3.20;2.83;;;;;;;14.31;78.47;95632.97;1785497;80;21002;-67
2022/06/07 04:14:56;;;;;;;3.60;2.70;;;;;;;14.35;77.97;95637.27;1787138;80;21531;-69
2022/06/07 04:17:25;;;;;;;5.83;3.00;;;;;;;14.26;77.30;95634.47;1787155;80;20989;-69
2022/06/07 04:19:53;;;;;;;3.22;2.90;;;;;;;14.18;77.30;95637.80;1786139;80;21025;-69
2022/06/07 04:22:21;;;;;;;2.70;2.45;;;;;;;14.07;77.44;95634.17;1787232;80;20965;-69
2022/06/07 04:24:49;;;;;;;3.72;2.77;;;;;;;14.00;77.93;95625.99;1785722;80;21014;-69
2022/06/07 04:27:17;;;;;;;3.77;3.00;;;;;;;13.95;78.09;95627.92;1787024;80;21414;-69
2022/06/07 04:29:46;;;;;;;3.52;3.15;;;;;;;13.91;78.15;95628.95;1786895;80;21025;-70
2022/06/07 04:32:13;;;;;;;3.15;2.85;;;;;;;13.89;78.47;95628.59;1787199;80;21435;-70
2022/06/07 04:34:41;;;;;;;3.08;2.70;;;;;;;13.84;78.70;95627.41;1787053;80;21057;-70
2022/06/07 04:37:08;;;;;;;2.80;2.60;;;;;;;13.95;78.94;95625.73;1787207;80;21475;-70
2022/06/07 04:39:35;;;;;;;3.65;2.58;;;;;;;14.11;79.34;95624.78;1787024;80;21044;-69
2022/06/07 04:42:04;;;;;;;3.33;3.02;;;;;;;14.24;79.45;95625.68;1786566;80;20978;-69
2022/06/07 04:44:33;;;;;;;3.08;2.33;;;;;;;14.42;79.86;95620.69;1784675;80;21022;-69
2022/06/07 04:47:01;;;;;;;3.58;2.52;;;;;;;14.67;79.50;95624.75;1787191;80;21032;-69
2022/06/07 04:49:29;;;;;;;2.83;2.60;;;;;;;14.93;79.28;95622.51;1787001;80;20977;-69
2022/06/07 04:51:56;;;;;;;3.30;2.40;;;;;;;15.21;79.06;95624.18;1787303;80;21345;-69
2022/06/07 04:54:31;;;;;;;2.98;2.60;;;;;;;15.47;78.80;95618.78;1785031;80;21056;-69
2022/06/07 04:56:59;;;;;;;2.58;2.35;;;;;;;15.74;78.07;95622.67;1787069;80;21554;-71
2022/06/07 04:59:26;;;;;;;4.42;2.50;;;;;;;15.98;77.48;95613.74;1786710;80;21001;-70
2022/06/07 05:01:55;;;;;;;3.52;2.15;;;;;;;16.27;77.25;95617.02;1786678;80;21014;-69
2022/06/07 05:04:26;;;;;;;2.50;2.30;;;;;;;16.54;76.36;95614.17;1787255;80;21551;-68
2022/06/07 05:06:54;;;;;;;4.12;2.40;;;;;;;16.76;75.79;95619.47;1786499;80;21091;-67
2022/06/07 05:09:29;;;;;;;5.37;2.92;;;;;;;17.02;75.65;95624.56;1784155;80;21542;-71
2022/06/07 05:11:58;;;;;;;5.33;2.60;;;;;;;17.21;74.08;95621.08;1783906;80;21056;-67
2022/06/07 05:14:26;;;;;;;4.75;2.33;;;;;;;17.37;73.97;95623.95;1726905;80;21060;-68
2022/06/07 05:16:53;;;;;;;6.58;2.77;;;;;;;17.50;73.47;95620.65;1799901;80;21100;-69
2022/06/07 05:19:22;;;;;;;6.72;2.92;;;;;;;17.63;72.67;95619.63;1799545;80;21546;-71
2022/06/07 05:21:51;;;;;;;4.65;2.90;;;;;;;17.69;72.34;95626.03;1800005;80;20969;-71
2022/06/07 05:24:18;;;;;;;2.95;2.50;;;;;;;17.74;72.39;95626.68;1800135;80;21029;-70
2022/06/07 05:26:55;;;;;;;2.50;2.30;;;;;;;17.80;72.22;95622.03;1799881;80;21020;-68
2022/06/07 05:29:49;;;;;;;2.80;2.50;;;;;;;17.88;72.28;95628.72;1798924;80;21622;-70
2022/06/07 05:32:19;;;;;;;3.50;2.58;;;;;;;17.98;72.04;95626.97;1798939;80;21468;-69
2022/06/07 05:34:48;;;;;;;2.50;2.30;;;;;;;18.09;71.93;95623.30;1800655;80;21099;-68
2022/06/07 05:37:19;;;;;;;4.83;2.75;;;;;;;18.16;71.64;95624.75;1799906;80;21067;-69
2022/06/07 05:39:48;;;;;;;2.77;2.58;;;;;;;18.15;71.30;95621.22;1799701;80;21514;-69
2022/06/07 05:42:17;;;;;;;2.52;2.33;;;;;;;18.24;71.33;95619.03;1799732;80;21562;-70
2022/06/07 05:44:45;;;;;;;5.05;2.50;;;;;;;18.28;70.65;95618.81;1799969;80;21072;-71
2022/06/07 05:47:12;;;;;;;3.65;2.87;;;;;;;18.34;70.38;95625.22;1771006;80;21039;-68
2022/06/07 05:49:43;;;;;;;2.75;2.42;;;;;;;18.40;69.90;95621.85;1800287;80;21112;-69
2022/06/07 05:52:12;;;;;;;2.70;2.50;;;;;;;18.49;69.24;95620.91;1800605;80;21004;-65
2022/06/07 05:54:39;;;;;;;4.75;2.90;;;;;;;18.55;69.61;95623.77;1801034;80;21028;-67
2022/06/07 05:57:08;;;;;;;3.65;2.67;;;;;;;18.64;68.63;95623.77;1800912;80;21139;-67
2022/06/07 05:59:35;;;;;;;4.17;2.75;;;;;;;18.69;69.03;95626.59;1800515;80;21048;-67
2022/06/07 06:02:02;;;;;;;2.60;2.27;;;;;;;18.79;68.83;95627.89;1801000;80;21028;-67
2022/06/07 06:04:31;;;;;;;2.75;2.55;;;;;;;18.91;68.99;95632.24;1799685;80;21071;-67
2022/06/07 06:06:58;;;;;;;3.95;2.40;;;;;;;19.01;68.64;95633.50;1800720;80;21458;-66
2022/06/07 06:12:13;;;;;;;2.33;2.13;;;;;;;19.22;67.79;95632.38;1801159;80;20945;-66
2022/06/07 06:14:42;;;;;;;3.75;2.33;;;;;;;19.26;65.71;95627.75;1798802;80;21503;-70
2022/06/07 06:17:10;;;;;;;3.90;2.70;;;;;;;19.31;66.33;95629.71;1799802;80;21065;-68
2022/06/07 06:19:39;;;;;;;3.45;2.47;;;;;;;19.38;66.38;95631.61;1800797;80;21040;-70
2022/06/07 06:22:06;;;;;;;4.08;2.40;;;;;;;19.49;66.11;95628.35;1794223;78;21020;-68
2022/06/07 06:24:35;;;;;;;2.83;2.30;;;;;;;19.50;64.80;95626.05;1798524;79;21073;-70
2022/06/07 06:27:04;;;;;;;2.80;2.50;;;;;;;19.50;65.21;95618.03;1776410;81;21005;-70
2022/06/07 06:29:34;;;;;;;2.40;2.20;;;;;;;19.62;65.31;95616.89;1796100;80;21085;-70
2022/06/07 06:32:03;;;;;;;2.58;2.37;;;;;;;19.65;64.64;95615.86;1776235;81;20997;-69
2022/06/07 06:34:30;;;;;;;4.28;2.80;;;;;;;19.74;64.86;95622.10;1795509;79;21104;-70
2022/06/07 06:36:59;;;;;;;2.50;2.30;;;;;;;19.79;64.45;95620.52;1796512;79;21013;-69
2022/06/07 06:39:27;;;;;;;2.70;2.45;;;;;;;19.82;64.34;95621.20;1792510;80;21080;-69
2022/06/07 06:41:55;;;;;;;3.67;2.80;;;;;;;19.85;63.77;95613.47;1766030;81;21021;-71
2022/06/07 06:44:26;;;;;;;5.55;2.80;;;;;;;19.92;63.78;95612.67;1776257;80;21554;-67
2022/06/07 06:46:55;;;;;;;5.08;2.98;;;;;;;19.97;64.04;95609.27;1752153;81;21025;-73
2022/06/07 06:49:22;;;;;;;3.72;2.98;;;;;;;20.02;63.77;95604.52;1768113;81;21077;-68
2022/06/07 06:51:50;;;;;;;3.70;2.85;;;;;;;20.16;64.44;95609.09;1769411;81;22175;-70
2022/06/07 06:54:19;;;;;;;3.67;3.00;;;;;;;20.28;64.26;95611.94;1768371;81;21084;-72
2022/06/07 06:56:48;;;;;;;3.17;2.53;;;;;;;20.40;63.86;95610.39;1750032;82;21074;-68
2022/06/07 06:59:18;;;;;;;3.22;2.60;;;;;;;20.51;62.91;95609.77;1768108;81;21592;-66
2022/06/07 07:01:47;;;;;;;3.92;2.92;;;;;;;20.53;62.50;95601.16;1764673;81;21038;-66
2022/06/07 07:04:17;;;;;;;2.90;2.70;;;;;;;20.61;63.28;95605.63;1747003;82;20990;-68
2022/06/07 07:06:47;;;;;;;3.37;2.62;;;;;;;20.74;62.51;95601.78;1755147;81;21566;-67
2022/06/07 07:09:17;;;;;;;3.42;2.70;;;;;;;20.84;62.62;95605.66;1765130;81;21053;-66
2022/06/07 07:11:50;;;;;;;2.62;2.40;;;;;;;20.93;62.23;95598.87;1768372;80;21050;-66
2022/06/07 07:14:19;;;;;;;2.60;2.40;;;;;;;20.97;61.59;95607.12;1795312;80;21049;-66
2022/06/07 07:16:54;;;;;;;4.17;2.40;;;;;;;21.12;62.65;95604.87;1793486;80;21497;-66
2022/06/07 07:19:21;;;;;;;7.12;2.60;;;;;;;21.24;61.67;95597.88;1791570;80;21488;-66
2022/06/07 07:21:51;;;;;;;3.05;2.60;;;;;;;21.42;62.40;95601.32;1792308;80;21006;-66
2022/06/07 07:24:23;;;;;;;2.80;2.60;;;;;;;21.54;61.17;95594.31;1793003;80;21041;-66
2022/06/07 07:26:52;;;;;;;2.55;2.35;;;;;;;21.62;60.37;95596.06;1787034;80;21019;-65
2022/06/07 07:29:23;;;;;;;3.00;2.40;;;;;;;21.71;59.16;95598.16;1772229;81;21001;-66
2022/06/07 07:31:52;;;;;;;3.10;2.47;;;;;;;21.77;58.92;95592.41;1732755;81;21108;-71
2022/06/07 07:34:21;;;;;;;3.50;2.30;;;;;;;21.91;59.74;95592.88;1786076;80;21061;-68
2022/06/07 07:36:53;;;;;;;3.70;2.58;;;;;;;21.96;58.51;95593.44;1786553;80;21074;-69
2022/06/07 07:39:24;;;;;;;2.70;2.50;;;;;;;21.99;58.18;95590.55;1786247;80;21093;-70
2022/06/07 07:41:52;;;;;;;3.15;2.30;;;;;;;22.12;58.18;95585.73;1775285;80;21473;-70
2022/06/07 07:44:23;;;;;;;4.58;2.50;;;;;;;22.29;58.96;95587.37;1768752;81;21057;-67
2022/06/07 07:46:55;;;;;;;3.62;2.60;;;;;;;22.43;57.46;95584.66;1770509;81;21487;-69
2022/06/07 07:49:23;;;;;;;2.72;2.50;;;;;;;22.37;56.32;95581.02;1767702;81;21046;-67
2022/06/07 07:51:52;;;;;;;2.55;2.30;;;;;;;22.43;56.18;95577.94;1760896;81;21013;-68
2022/06/07 07:54:22;;;;;;;2.98;2.50;;;;;;;22.50;56.62;95578.38;1735074;81;21061;-67
2022/06/07 07:56:50;;;;;;;3.37;2.40;;;;;;;22.67;57.53;95580.81;1763301;81;21020;-68
2022/06/07 07:59:20;;;;;;;3.42;2.50;;;;;;;22.78;56.27;95579.63;1768864;81;20986;-68
2022/06/07 08:01:49;;;;;;;3.27;2.95;;;;;;;22.88;55.36;95577.16;1737686;81;21985;-66
2022/06/07 08:04:17;;;;;;;2.60;2.40;;;;;;;22.96;54.09;95572.63;1758942;81;21049;-69
2022/06/07 08:06:46;;;;;;;3.60;2.70;;;;;;;23.06;55.06;95576.45;1769358;81;21058;-70
2022/06/07 08:09:12;;;;;;;3.10;2.20;;;;;;;22.96;53.98;95573.97;1759874;81;20998;-69
2022/06/07 08:11:42;;;;;;;4.53;2.62;;;;;;;23.04;54.91;95568.47;1759360;81;21026;-69
2022/06/07 08:14:15;;;;;;;3.00;2.60;;;;;;;23.20;54.83;95569.61;1760432;81;20991;-68
2022/06/07 08:16:43;;;;;;;2.42;2.22;;;;;;;23.30;53.59;95570.70;1756236;81;21043;-67
2022/06/07 08:19:09;;;;;;;2.75;2.55;;;;;;;23.31;52.90;95567.55;1723042;83;21063;-70
2022/06/07 08:21:38;;;;;;;2.92;2.62;;;;;;;23.48;52.82;95570.39;1759961;81;21013;-69
2022/06/07 08:24:06;;;;;;;2.52;2.33;;;;;;;23.54;52.20;95572.17;1750488;81;20995;-67
2022/06/07 08:26:34;;;;;;;3.52;2.15;;;;;;;23.61;52.00;95563.19;1756989;81;20971;-66
2022/06/07 08:29:02;;;;;;;2.77;2.33;;;;;;;23.72;52.31;95557.03;1759682;81;21137;-66
2022/06/07 08:31:31;;;;;;;2.87;2.62;;;;;;;23.78;51.38;95555.27;1754807;81;21081;-66
2022/06/07 08:39:31;;;;;;;3.65;2.62;;;;;;;24.07;50.29;95553.67;1755392;81;21140;-66
2022/06/07 08:42:21;;;;;;;5.42;2.50;;;;;;;24.16;51.19;95550.28;1755670;81;21100;-66
2022/06/07 08:45:02;;;;;;;2.67;2.47;;;;;;;24.19;49.87;95552.74;1766550;80;21042;-68
2022/06/07 08:47:48;;;;;;;3.05;2.40;;;;;;;24.43;50.28;95550.09;1789972;79;21050;-68
2022/06/07 08:50:26;;;;;;;2.80;2.45;;;;;;;24.60;49.89;95544.82;1794747;79;21097;-69
2022/06/07 08:52:58;;;;;;;3.80;2.35;;;;;;;24.81;50.30;95547.23;1763100;80;21042;-69
2022/06/07 08:55:48;;;;;;;2.58;1.92;;;;;;;24.94;47.98;95547.66;1749686;81;22243;-68
2022/06/07 08:58:23;;;;;;;2.60;2.40;;;;;;;25.04;47.53;95545.47;1759686;81;21149;-67
2022/06/07 09:01:03;;;;;;;3.77;2.02;;;;;;;25.21;48.65;95537.45;1761774;81;21025;-68
2022/06/07 09:03:53;;;;;;;4.05;2.35;;;;;;;25.31;46.02;95540.31;1761919;81;21059;-70
2022/06/07 09:06:24;;;;;;;4.85;2.10;;;;;;;25.38;47.04;95534.80;1761082;81;21534;-68
2022/06/07 09:08:57;;;;;;;2.20;2.10;;;;;;;25.44;44.87;95530.25;1765375;80;21051;-68
2022/06/07 09:14:47;;;;;;;3.47;2.40;;;;;;;25.66;45.42;95522.67;1761702;80;21018;-68
2022/06/07 09:17:19;;;;;;;2.30;2.10;;;;;;;25.88;44.46;95519.64;1761564;81;20994;-68
2022/06/07 09:19:49;;;;;;;3.80;2.10;;;;;;;25.94;43.19;95519.63;1764745;81;21473;-69
2022/06/07 09:22:30;;;;;;;4.65;1.90;;;;;;;25.98;43.93;95517.91;1766108;81;21055;-69
2022/06/07 09:25:05;;;;;;;2.83;2.10;;;;;;;26.15;44.25;95516.52;1749385;81;21460;-69
2022/06/07 09:27:34;;;;;;;4.92;1.90;;;;;;;26.34;42.10;95511.32;1753246;81;20994;-69
2022/06/07 09:30:21;;;;;;;2.92;1.85;;;;;;;26.34;41.05;95511.32;1755755;81;20978;-69
2022/06/07 09:32:52;;;;;;;1.80;1.70;;;;;;;26.43;42.75;95504.77;1754008;81;21019;-68
2022/06/07 09:35:34;;;;;;;2.20;1.72;;;;;;;26.59;41.87;95497.14;1759094;81;21492;-67
2022/06/07 09:38:15;;;;;;;4.78;1.90;;;;;;;26.74;42.29;95500.41;1762651;81;21023;-68
2022/06/07 09:40:59;;;;;;;2.67;1.70;;;;;;;26.75;41.22;95494.84;1762359;81;21058;-68
2022/06/07 09:43:31;;;;;;;3.12;1.90;;;;;;;26.88;40.00;95501.43;1761837;81;21501;-68
2022/06/07 09:46:08;;;;;;;2.08;1.95;;;;;;;26.81;39.00;95499.38;1760852;81;21480;-68
2022/06/07 09:48:42;;;;;;;2.45;1.77;;;;;;;26.94;40.00;95490.59;1762500;81;21003;-68
2022/06/07 09:51:21;;;;;;;1.92;1.80;;;;;;;27.05;38.36;95487.81;1762323;81;21543;-69
2022/06/07 09:53:58;;;;;;;2.08;1.87;;;;;;;27.04;37.86;95480.69;1761714;81;21085;-68
2022/06/07 09:56:39;;;;;;;2.12;1.70;;;;;;;27.04;37.28;95482.52;1752636;81;21097;-68
2022/06/07 09:59:32;;;;;;;1.82;1.72;;;;;;;26.88;39.30;95482.48;1762510;81;21517;-68
2022/06/07 10:02:36;;;;;;;;;;;;;;;27.10;39.19;95484.71;1765223;81;21027;-69
2022/06/07 10:05:22;;;;;;;;;;;;;;;27.13;36.11;95479.03;1765165;81;20126;-68
2022/06/07 10:08:21;;;;;;;2.17;1.80;;;;;;;27.25;36.17;95480.70;1762729;81;20102;-69
2022/06/07 10:11:17;;;;;;;2.95;2.08;;;;;;;27.39;37.97;95478.13;1762234;81;21058;-68
2022/06/07 10:14:14;;;;;;;3.40;2.12;;;;;;;27.47;38.21;95472.92;1762374;81;20998;-69
2022/06/07 10:17:23;;;;;;;2.20;1.80;;;;;;;27.44;36.45;95473.17;1762077;81;21030;-69
2022/06/07 10:20:04;;;;;;;2.40;2.00;;;;;;;27.69;38.00;95473.22;1766365;81;20995;-68
2022/06/07 10:23:14;;;;;;;2.67;1.90;;;;;;;27.78;33.97;95465.63;1762811;81;20974;-68
2022/06/07 10:26:22;;;;;;;2.27;1.80;;;;;;;27.88;37.80;95466.21;1765902;81;21085;-68
2022/06/07 10:29:17;;;;;;;2.55;2.00;;;;;;;28.03;35.46;95467.53;1765214;81;21090;-68
2022/06/07 10:32:04;;;;;;;15.20;2.00;;;;;;;28.11;37.11;95464.13;1764994;81;21841;-67
2022/06/07 10:34:39;;;;;;;2.42;1.80;;;;;;;28.21;35.98;95454.16;1761182;81;21508;-68
2022/06/07 10:37:23;;;;;;;1.98;1.80;;;;;;;28.31;36.85;95457.74;1766333;81;21045;-68
2022/06/07 10:40:13;;;;;;;1.95;1.70;;;;;;;28.35;36.52;95451.52;1764096;81;21018;-68
2022/06/07 10:42:51;;;;;;;2.12;1.80;;;;;;;28.53;37.01;95447.16;1766356;81;21014;-69
2022/06/07 10:45:34;;;;;;;2.45;1.70;;;;;;;28.72;35.85;95446.30;1764858;81;21153;-69
2022/06/07 10:48:33;;;;;;;2.17;1.70;;;;;;;28.87;35.60;95444.00;1766297;81;21078;-68
2022/06/07 10:54:08;;;;;;;2.17;1.80;;;;;;;28.82;35.72;95439.00;1762265;81;21509;-68
2022/06/07 10:56:42;;;;;;;3.83;1.77;;;;;;;28.85;36.08;95431.95;1766355;81;21090;-68
2022/06/07 10:59:20;;;;;;;5.65;1.92;;;;;;;29.15;36.37;95427.84;1766634;81;21005;-68
2022/06/07 11:02:01;;;;;;;2.58;2.20;;;;;;;29.10;35.25;95427.77;1761094;81;20975;-68
2022/06/07 11:10:36;;;;;;;2.52;2.00;;;;;;;29.43;35.24;95419.24;1766358;81;21031;-68
2022/06/07 11:13:23;;;;;;;2.10;1.70;;;;;;;29.39;34.04;95417.34;1766736;81;21014;-69
2022/06/07 11:16:07;;;;;;;2.10;1.90;;;;;;;29.49;34.11;95417.31;1755062;81;20987;-69
2022/06/07 11:18:34;;;;;;;2.22;1.85;;;;;;;29.55;34.10;95424.85;1766434;81;21034;-69
2022/06/07 11:21:08;;;;;;;2.02;1.70;;;;;;;29.68;31.83;95410.95;1766035;81;21007;-69
2022/06/07 11:24:05;;;;;;;1.95;1.80;;;;;;;29.72;35.39;95413.22;1766439;81;20975;-69
2022/06/07 11:26:55;;;;;;;1.90;1.80;;;;;;;29.77;34.22;95411.41;1766328;81;21060;-69
2022/06/07 11:29:29;;;;;;;3.35;2.02;;;;;;;29.71;33.35;95406.56;1765881;81;21030;-68
2022/06/07 11:31:57;;;;;;;3.67;2.20;;;;;;;29.29;34.05;95411.08;1766234;81;21511;-68
2022/06/07 11:34:33;;;;;;;2.70;1.80;;;;;;;29.28;34.53;95402.08;1766211;81;21073;-68
2022/06/07 11:37:18;;;;;;;2.27;1.80;;;;;;;28.95;34.50;95402.54;1765190;81;21003;-68
2022/06/07 11:39:55;;;;;;;3.72;1.80;;;;;;;29.17;36.66;95400.03;1765974;81;20995;-69
2022/06/07 11:42:34;;;;;;;3.45;1.80;;;;;;;29.48;34.62;95395.19;1766239;81;21045;-68
2022/06/07 11:45:22;;;;;;;2.62;1.80;;;;;;;29.58;33.60;95392.44;1766267;81;21046;-69
2022/06/07 11:47:59;;;;;;;2.33;2.12;;;;;;;29.69;34.58;95395.01;1766415;81;21026;-69
2022/06/07 11:50:31;;;;;;;2.85;1.85;;;;;;;29.84;34.27;95395.36;1751814;81;21041;-69
2022/06/07 11:53:27;;;;;;;2.10;1.90;;;;;;;30.04;33.65;95396.08;1766585;81;20994;-68
2022/06/07 11:56:05;;;;;;;2.00;1.90;;;;;;;29.84;30.96;95395.36;1766307;81;21034;-69
2022/06/07 11:59:00;;;;;;;2.52;2.08;;;;;;;29.76;32.83;95395.61;1766453;81;21021;-69
2022/06/07 12:01:41;;;;;;;2.72;2.02;;;;;;;29.91;31.89;95388.28;1766116;81;21567;-68
2022/06/07 12:04:36;;;;;;;2.20;2.10;;;;;;;29.99;31.68;95388.40;1765396;81;21045;-68
2022/06/07 12:07:52;;;;;;;5.53;2.05;;;;;;;30.32;30.95;95388.78;1766361;81;21034;-68
2022/06/07 12:10:38;;;;;;;2.08;1.80;;;;;;;30.58;32.18;95386.12;1766216;81;21017;-68
2022/06/07 12:13:16;;;;;;;2.77;1.82;;;;;;;31.14;32.29;95371.77;1766462;81;21057;-68
2022/06/07 12:15:49;;;;;;;4.10;1.70;;;;;;;31.70;29.73;95367.66;1766234;81;21042;-68
2022/06/07 12:18:26;;;;;;;1.90;1.80;;;;;;;31.95;29.19;95365.91;1766287;81;21046;-69
2022/06/07 12:21:04;;;;;;;3.10;1.80;;;;;;;32.29;29.04;95359.53;1766367;81;21018;-68
2022/06/07 12:23:35;;;;;;;1.75;1.45;;;;;;;32.61;27.72;95364.22;1766747;81;20998;-68
2022/06/07 12:26:08;;;;;;;3.92;1.62;;;;;;;32.81;25.95;95351.08;1765968;81;21535;-69